sensor_id;sensor_type;location;lat;lon;timestamp;temperature;humidity
3699;DHT22;1865;50.918;7.092;2022-11-11T00:00:45;12.20;59.30
3699;DHT22;1865;50.918;7.092;2022-11-11T00:03:10;12.20;59.00
3699;DHT22;1865;50.918;7.092;2022-11-11T00:05:36;12.20;59.50
3699;DHT22;1865;50.918;7.092;2022-11-11T00:08:01;12.30;59.60
3699;DHT22;1865;50.918;7.092;2022-11-11T00:10:28;12.30;59.20
3699;DHT22;1865;50.918;7.092;2022-11-11T00:13:02;12.30;59.30
3699;DHT22;1865;50.918;7.092;2022-11-11T00:15:28;12.40;59.20
3699;DHT22;1865;50.918;7.092;2022-11-11T00:17:54;12.50;58.90
3699;DHT22;1865;50.918;7.092;2022-11-11T00:20:37;12.50;58.50
3699;DHT22;1865;50.918;7.092;2022-11-11T00:23:25;12.60;58.50
3699;DHT22;1865;50.918;7.092;2022-11-11T00:26:12;12.70;57.80
3699;DHT22;1865;50.918;7.092;2022-11-11T00:28:38;12.70;58.20
3699;DHT22;1865;50.918;7.092;2022-11-11T00:31:06;12.70;57.80
3699;DHT22;1865;50.918;7.092;2022-11-11T00:33:33;12.80;57.50
3699;DHT22;1865;50.918;7.092;2022-11-11T00:35:59;12.70;57.60
3699;DHT22;1865;50.918;7.092;2022-11-11T00:38:25;12.60;58.20
3699;DHT22;1865;50.918;7.092;2022-11-11T00:41:09;12.60;57.70
3699;DHT22;1865;50.918;7.092;2022-11-11T00:43:35;12.50;58.40
3699;DHT22;1865;50.918;7.092;2022-11-11T00:46:00;12.60;58.30
3699;DHT22;1865;50.918;7.092;2022-11-11T00:48:44;12.70;57.50
3699;DHT22;1865;50.918;7.092;2022-11-11T00:51:28;12.80;57.30
3699;DHT22;1865;50.918;7.092;2022-11-11T00:53:54;12.60;57.60
3699;DHT22;1865;50.918;7.092;2022-11-11T00:56:21;12.60;57.20
3699;DHT22;1865;50.918;7.092;2022-11-11T00:58:46;12.40;57.60
3699;DHT22;1865;50.918;7.092;2022-11-11T01:01:12;12.40;57.70
3699;DHT22;1865;50.918;7.092;2022-11-11T01:03:37;12.40;57.60
3699;DHT22;1865;50.918;7.092;2022-11-11T01:06:03;12.40;57.80
3699;DHT22;1865;50.918;7.092;2022-11-11T01:08:30;12.30;57.50
3699;DHT22;1865;50.918;7.092;2022-11-11T01:10:56;12.30;57.80
3699;DHT22;1865;50.918;7.092;2022-11-11T01:13:24;12.20;58.10
3699;DHT22;1865;50.918;7.092;2022-11-11T01:15:51;12.20;58.20
3699;DHT22;1865;50.918;7.092;2022-11-11T01:18:19;12.30;58.70
3699;DHT22;1865;50.918;7.092;2022-11-11T01:20:46;12.20;57.90
3699;DHT22;1865;50.918;7.092;2022-11-11T01:23:13;12.10;58.60
3699;DHT22;1865;50.918;7.092;2022-11-11T01:25:40;12.00;58.60
3699;DHT22;1865;50.918;7.092;2022-11-11T01:28:07;12.00;59.00
3699;DHT22;1865;50.918;7.092;2022-11-11T01:30:34;12.10;59.00
3699;DHT22;1865;50.918;7.092;2022-11-11T01:33:00;12.10;58.30
3699;DHT22;1865;50.918;7.092;2022-11-11T01:35:26;12.00;58.50
3699;DHT22;1865;50.918;7.092;2022-11-11T01:37:52;11.90;58.90
3699;DHT22;1865;50.918;7.092;2022-11-11T01:40:17;12.00;58.90
3699;DHT22;1865;50.918;7.092;2022-11-11T01:45:58;11.90;59.30
3699;DHT22;1865;50.918;7.092;2022-11-11T01:48:44;11.90;59.00
3699;DHT22;1865;50.918;7.092;2022-11-11T01:51:34;11.80;59.10
3699;DHT22;1865;50.918;7.092;2022-11-11T01:54:05;11.90;59.70
3699;DHT22;1865;50.918;7.092;2022-11-11T01:56:31;11.80;58.60
3699;DHT22;1865;50.918;7.092;2022-11-11T01:59:02;11.90;59.30
3699;DHT22;1865;50.918;7.092;2022-11-11T02:01:30;11.90;58.80
3699;DHT22;1865;50.918;7.092;2022-11-11T02:03:56;12.00;58.00
3699;DHT22;1865;50.918;7.092;2022-11-11T02:06:43;11.90;58.00
3699;DHT22;1865;50.918;7.092;2022-11-11T02:09:10;11.80;58.60
3699;DHT22;1865;50.918;7.092;2022-11-11T02:11:36;11.70;58.80
3699;DHT22;1865;50.918;7.092;2022-11-11T02:14:24;11.70;58.80
3699;DHT22;1865;50.918;7.092;2022-11-11T02:17:07;11.70;59.00
3699;DHT22;1865;50.918;7.092;2022-11-11T02:19:53;11.60;59.00
3699;DHT22;1865;50.918;7.092;2022-11-11T02:22:33;11.50;59.30
3699;DHT22;1865;50.918;7.092;2022-11-11T02:25:01;11.50;59.40
3699;DHT22;1865;50.918;7.092;2022-11-11T02:27:28;11.50;59.00
3699;DHT22;1865;50.918;7.092;2022-11-11T02:29:57;11.50;59.10
3699;DHT22;1865;50.918;7.092;2022-11-11T02:32:24;11.50;59.40
3699;DHT22;1865;50.918;7.092;2022-11-11T02:34:50;11.50;58.90
3699;DHT22;1865;50.918;7.092;2022-11-11T02:37:23;11.50;58.80
3699;DHT22;1865;50.918;7.092;2022-11-11T02:39:49;11.50;59.30
3699;DHT22;1865;50.918;7.092;2022-11-11T02:42:19;11.50;59.60
3699;DHT22;1865;50.918;7.092;2022-11-11T02:44:45;11.50;59.10
3699;DHT22;1865;50.918;7.092;2022-11-11T02:47:10;11.50;58.90
3699;DHT22;1865;50.918;7.092;2022-11-11T02:49:36;11.50;59.80
3699;DHT22;1865;50.918;7.092;2022-11-11T02:52:02;11.50;59.10
3699;DHT22;1865;50.918;7.092;2022-11-11T02:54:27;11.50;59.30
3699;DHT22;1865;50.918;7.092;2022-11-11T02:56:53;11.50;59.80
3699;DHT22;1865;50.918;7.092;2022-11-11T02:59:38;11.60;59.00
3699;DHT22;1865;50.918;7.092;2022-11-11T03:02:05;11.60;58.80
3699;DHT22;1865;50.918;7.092;2022-11-11T03:04:30;11.60;59.20
3699;DHT22;1865;50.918;7.092;2022-11-11T03:06:56;11.50;59.20
3699;DHT22;1865;50.918;7.092;2022-11-11T03:09:22;11.50;59.10
3699;DHT22;1865;50.918;7.092;2022-11-11T03:11:47;11.50;59.10
3699;DHT22;1865;50.918;7.092;2022-11-11T03:14:13;11.50;58.80
3699;DHT22;1865;50.918;7.092;2022-11-11T03:16:38;11.40;59.00
3699;DHT22;1865;50.918;7.092;2022-11-11T03:19:23;11.30;59.20
3699;DHT22;1865;50.918;7.092;2022-11-11T03:21:48;11.30;59.80
3699;DHT22;1865;50.918;7.092;2022-11-11T03:24:14;11.40;59.10
3699;DHT22;1865;50.918;7.092;2022-11-11T03:26:39;11.40;59.30
3699;DHT22;1865;50.918;7.092;2022-11-11T03:29:05;11.40;59.20
3699;DHT22;1865;50.918;7.092;2022-11-11T03:31:30;11.40;59.00
3699;DHT22;1865;50.918;7.092;2022-11-11T03:33:56;11.40;59.50
3699;DHT22;1865;50.918;7.092;2022-11-11T03:36:42;11.40;59.70
3699;DHT22;1865;50.918;7.092;2022-11-11T03:39:25;11.40;59.40
3699;DHT22;1865;50.918;7.092;2022-11-11T03:41:51;11.30;59.10
3699;DHT22;1865;50.918;7.092;2022-11-11T03:44:16;11.20;59.40
3699;DHT22;1865;50.918;7.092;2022-11-11T03:46:42;11.20;59.70
3699;DHT22;1865;50.918;7.092;2022-11-11T03:49:07;11.10;59.80
3699;DHT22;1865;50.918;7.092;2022-11-11T03:51:33;11.20;60.10
3699;DHT22;1865;50.918;7.092;2022-11-11T03:53:58;11.20;59.80
3699;DHT22;1865;50.918;7.092;2022-11-11T03:56:24;11.10;60.40
3699;DHT22;1865;50.918;7.092;2022-11-11T03:58:49;11.10;60.50
3699;DHT22;1865;50.918;7.092;2022-11-11T04:01:15;11.20;60.20
3699;DHT22;1865;50.918;7.092;2022-11-11T04:04:00;11.20;59.70
3699;DHT22;1865;50.918;7.092;2022-11-11T04:06:44;11.30;59.60
3699;DHT22;1865;50.918;7.092;2022-11-11T04:09:28;11.20;59.90
3699;DHT22;1865;50.918;7.092;2022-11-11T04:12:12;11.20;59.60
3699;DHT22;1865;50.918;7.092;2022-11-11T04:14:38;11.10;60.10
3699;DHT22;1865;50.918;7.092;2022-11-11T04:17:22;11.10;60.10
3699;DHT22;1865;50.918;7.092;2022-11-11T04:19:47;11.10;59.90
3699;DHT22;1865;50.918;7.092;2022-11-11T04:22:31;11.20;59.90
3699;DHT22;1865;50.918;7.092;2022-11-11T04:24:56;11.10;60.00
3699;DHT22;1865;50.918;7.092;2022-11-11T04:27:40;11.20;59.80
3699;DHT22;1865;50.918;7.092;2022-11-11T04:30:06;11.20;59.90
3699;DHT22;1865;50.918;7.092;2022-11-11T04:32:32;11.20;59.50
3699;DHT22;1865;50.918;7.092;2022-11-11T04:35:05;11.20;59.90
3699;DHT22;1865;50.918;7.092;2022-11-11T04:37:33;11.20;59.30
3699;DHT22;1865;50.918;7.092;2022-11-11T04:40:00;11.20;59.50
3699;DHT22;1865;50.918;7.092;2022-11-11T04:42:44;11.20;60.50
3699;DHT22;1865;50.918;7.092;2022-11-11T04:45:11;11.20;59.60
3699;DHT22;1865;50.918;7.092;2022-11-11T04:50:17;11.20;59.90
3699;DHT22;1865;50.918;7.092;2022-11-11T04:52:43;11.20;59.80
3699;DHT22;1865;50.918;7.092;2022-11-11T04:55:08;11.20;59.20
3699;DHT22;1865;50.918;7.092;2022-11-11T04:57:52;11.20;59.90
3699;DHT22;1865;50.918;7.092;2022-11-11T05:00:18;11.00;59.50
3699;DHT22;1865;50.918;7.092;2022-11-11T05:02:44;11.00;59.80
3699;DHT22;1865;50.918;7.092;2022-11-11T05:05:29;11.10;60.00
3699;DHT22;1865;50.918;7.092;2022-11-11T05:08:15;11.00;59.90
3699;DHT22;1865;50.918;7.092;2022-11-11T05:10:59;11.00;59.90
3699;DHT22;1865;50.918;7.092;2022-11-11T05:13:25;11.00;60.00
3699;DHT22;1865;50.918;7.092;2022-11-11T05:16:18;11.20;60.60
3699;DHT22;1865;50.918;7.092;2022-11-11T05:19:03;10.90;59.80
3699;DHT22;1865;50.918;7.092;2022-11-11T05:21:49;10.90;60.40
3699;DHT22;1865;50.918;7.092;2022-11-11T05:24:15;10.80;60.90
3699;DHT22;1865;50.918;7.092;2022-11-11T05:26:59;10.90;60.50
3699;DHT22;1865;50.918;7.092;2022-11-11T05:29:25;10.90;60.70
3699;DHT22;1865;50.918;7.092;2022-11-11T05:31:50;10.80;60.50
3699;DHT22;1865;50.918;7.092;2022-11-11T05:34:16;10.80;61.10
3699;DHT22;1865;50.918;7.092;2022-11-11T05:36:41;10.80;60.70
3699;DHT22;1865;50.918;7.092;2022-11-11T05:39:07;10.80;60.40
3699;DHT22;1865;50.918;7.092;2022-11-11T05:41:32;10.80;60.70
3699;DHT22;1865;50.918;7.092;2022-11-11T05:43:58;10.90;60.80
3699;DHT22;1865;50.918;7.092;2022-11-11T05:46:23;10.90;60.40
3699;DHT22;1865;50.918;7.092;2022-11-11T05:48:49;10.90;60.30
3699;DHT22;1865;50.918;7.092;2022-11-11T05:51:33;11.00;60.90
3699;DHT22;1865;50.918;7.092;2022-11-11T05:53:58;10.90;59.90
3699;DHT22;1865;50.918;7.092;2022-11-11T05:56:24;10.90;60.30
3699;DHT22;1865;50.918;7.092;2022-11-11T05:58:49;10.90;60.10
3699;DHT22;1865;50.918;7.092;2022-11-11T06:01:15;10.90;61.40
3699;DHT22;1865;50.918;7.092;2022-11-11T06:03:40;11.10;60.30
3699;DHT22;1865;50.918;7.092;2022-11-11T06:06:06;11.10;60.10
3699;DHT22;1865;50.918;7.092;2022-11-11T06:08:31;11.20;59.70
3699;DHT22;1865;50.918;7.092;2022-11-11T06:10:57;11.10;59.40
3699;DHT22;1865;50.918;7.092;2022-11-11T06:13:23;11.10;59.90
3699;DHT22;1865;50.918;7.092;2022-11-11T06:15:48;11.10;59.90
3699;DHT22;1865;50.918;7.092;2022-11-11T06:18:13;11.10;60.00
3699;DHT22;1865;50.918;7.092;2022-11-11T06:20:39;11.10;59.50
3699;DHT22;1865;50.918;7.092;2022-11-11T06:23:05;11.10;59.40
3699;DHT22;1865;50.918;7.092;2022-11-11T06:25:32;11.20;60.10
3699;DHT22;1865;50.918;7.092;2022-11-11T06:28:17;11.00;59.60
3699;DHT22;1865;50.918;7.092;2022-11-11T06:30:43;11.10;59.70
3699;DHT22;1865;50.918;7.092;2022-11-11T06:33:10;11.00;59.70
3699;DHT22;1865;50.918;7.092;2022-11-11T06:35:37;11.10;60.10
3699;DHT22;1865;50.918;7.092;2022-11-11T06:38:04;11.10;59.40
3699;DHT22;1865;50.918;7.092;2022-11-11T06:40:30;11.20;59.20
3699;DHT22;1865;50.918;7.092;2022-11-11T06:42:57;11.20;59.20
3699;DHT22;1865;50.918;7.092;2022-11-11T06:45:23;11.20;59.40
3699;DHT22;1865;50.918;7.092;2022-11-11T06:47:49;11.20;59.00
3699;DHT22;1865;50.918;7.092;2022-11-11T06:50:15;11.20;59.00
3699;DHT22;1865;50.918;7.092;2022-11-11T06:52:40;11.10;59.40
3699;DHT22;1865;50.918;7.092;2022-11-11T06:55:06;11.00;59.30
3699;DHT22;1865;50.918;7.092;2022-11-11T06:57:32;10.90;60.10
3699;DHT22;1865;50.918;7.092;2022-11-11T06:59:57;11.00;60.10
3699;DHT22;1865;50.918;7.092;2022-11-11T07:02:23;11.00;60.00
3699;DHT22;1865;50.918;7.092;2022-11-11T07:04:48;11.10;60.10
3699;DHT22;1865;50.918;7.092;2022-11-11T07:07:14;11.00;59.70
3699;DHT22;1865;50.918;7.092;2022-11-11T07:09:41;11.00;60.30
3699;DHT22;1865;50.918;7.092;2022-11-11T07:12:07;11.10;59.90
3699;DHT22;1865;50.918;7.092;2022-11-11T07:14:33;11.00;60.00
3699;DHT22;1865;50.918;7.092;2022-11-11T07:16:58;11.00;60.10
3699;DHT22;1865;50.918;7.092;2022-11-11T07:19:24;11.00;60.30
3699;DHT22;1865;50.918;7.092;2022-11-11T07:21:49;11.10;61.30
3699;DHT22;1865;50.918;7.092;2022-11-11T07:24:15;11.10;59.90
3699;DHT22;1865;50.918;7.092;2022-11-11T07:26:40;11.10;59.80
3699;DHT22;1865;50.918;7.092;2022-11-11T07:29:06;11.20;59.60
3699;DHT22;1865;50.918;7.092;2022-11-11T07:31:32;11.20;59.70
3699;DHT22;1865;50.918;7.092;2022-11-11T07:33:57;11.10;60.20
3699;DHT22;1865;50.918;7.092;2022-11-11T07:36:23;11.20;60.50
3699;DHT22;1865;50.918;7.092;2022-11-11T07:38:48;11.20;60.10
3699;DHT22;1865;50.918;7.092;2022-11-11T07:41:14;11.30;59.70
3699;DHT22;1865;50.918;7.092;2022-11-11T07:43:39;11.30;59.60
3699;DHT22;1865;50.918;7.092;2022-11-11T07:46:05;11.30;59.80
3699;DHT22;1865;50.918;7.092;2022-11-11T07:48:30;11.40;59.60
3699;DHT22;1865;50.918;7.092;2022-11-11T07:50:56;11.40;59.30
3699;DHT22;1865;50.918;7.092;2022-11-11T07:53:22;11.30;59.60
3699;DHT22;1865;50.918;7.092;2022-11-11T07:55:47;11.40;60.20
3699;DHT22;1865;50.918;7.092;2022-11-11T07:58:13;11.60;59.60
3699;DHT22;1865;50.918;7.092;2022-11-11T08:00:39;11.70;59.00
3699;DHT22;1865;50.918;7.092;2022-11-11T08:03:04;11.70;59.30
3699;DHT22;1865;50.918;7.092;2022-11-11T08:05:31;11.70;59.00
3699;DHT22;1865;50.918;7.092;2022-11-11T08:08:02;11.80;59.20
3699;DHT22;1865;50.918;7.092;2022-11-11T08:10:29;11.90;58.80
3699;DHT22;1865;50.918;7.092;2022-11-11T08:12:55;11.90;58.50
3699;DHT22;1865;50.918;7.092;2022-11-11T08:15:39;11.90;58.50
3699;DHT22;1865;50.918;7.092;2022-11-11T08:18:04;12.00;59.00
3699;DHT22;1865;50.918;7.092;2022-11-11T08:20:30;12.00;58.80
3699;DHT22;1865;50.918;7.092;2022-11-11T08:22:55;12.00;58.60
3699;DHT22;1865;50.918;7.092;2022-11-11T08:25:23;12.10;59.00
3699;DHT22;1865;50.918;7.092;2022-11-11T08:27:48;12.20;59.10
3699;DHT22;1865;50.918;7.092;2022-11-11T08:30:14;12.30;58.40
3699;DHT22;1865;50.918;7.092;2022-11-11T08:32:39;12.30;58.20
3699;DHT22;1865;50.918;7.092;2022-11-11T08:35:05;12.30;58.80
3699;DHT22;1865;50.918;7.092;2022-11-11T08:37:31;12.40;58.20
3699;DHT22;1865;50.918;7.092;2022-11-11T08:39:56;12.40;57.90
3699;DHT22;1865;50.918;7.092;2022-11-11T08:42:22;12.60;58.90
3699;DHT22;1865;50.918;7.092;2022-11-11T08:44:47;12.80;57.60
3699;DHT22;1865;50.918;7.092;2022-11-11T08:47:13;12.70;57.60
3699;DHT22;1865;50.918;7.092;2022-11-11T08:49:38;12.90;57.20
3699;DHT22;1865;50.918;7.092;2022-11-11T08:52:04;12.90;57.10
3699;DHT22;1865;50.918;7.092;2022-11-11T08:54:29;13.00;56.90
3699;DHT22;1865;50.918;7.092;2022-11-11T08:56:55;12.90;57.00
3699;DHT22;1865;50.918;7.092;2022-11-11T08:59:20;12.90;57.20
3699;DHT22;1865;50.918;7.092;2022-11-11T09:01:46;12.90;56.80
3699;DHT22;1865;50.918;7.092;2022-11-11T09:04:11;13.10;56.90
3699;DHT22;1865;50.918;7.092;2022-11-11T09:06:37;13.20;57.00
3699;DHT22;1865;50.918;7.092;2022-11-11T09:09:04;13.20;56.90
3699;DHT22;1865;50.918;7.092;2022-11-11T09:11:29;13.30;56.60
3699;DHT22;1865;50.918;7.092;2022-11-11T09:14:01;13.30;56.30
3699;DHT22;1865;50.918;7.092;2022-11-11T09:16:26;13.30;56.40
3699;DHT22;1865;50.918;7.092;2022-11-11T09:18:51;13.40;56.60
3699;DHT22;1865;50.918;7.092;2022-11-11T09:21:17;13.40;56.20
3699;DHT22;1865;50.918;7.092;2022-11-11T09:23:43;13.40;56.60
3699;DHT22;1865;50.918;7.092;2022-11-11T09:26:08;13.30;56.90
3699;DHT22;1865;50.918;7.092;2022-11-11T09:28:34;13.60;56.70
3699;DHT22;1865;50.918;7.092;2022-11-11T09:31:00;13.70;56.70
3699;DHT22;1865;50.918;7.092;2022-11-11T09:33:26;13.80;56.80
3699;DHT22;1865;50.918;7.092;2022-11-11T09:35:52;13.90;55.40
3699;DHT22;1865;50.918;7.092;2022-11-11T09:38:17;13.90;55.30
3699;DHT22;1865;50.918;7.092;2022-11-11T09:40:48;14.00;55.30
3699;DHT22;1865;50.918;7.092;2022-11-11T09:46:30;14.60;54.40
3699;DHT22;1865;50.918;7.092;2022-11-11T09:49:15;14.70;53.50
3699;DHT22;1865;50.918;7.092;2022-11-11T09:52:02;14.70;54.00
3699;DHT22;1865;50.918;7.092;2022-11-11T09:54:44;14.90;53.70
3699;DHT22;1865;50.918;7.092;2022-11-11T09:57:37;14.90;53.20
3699;DHT22;1865;50.918;7.092;2022-11-11T10:00:20;15.00;53.30
3699;DHT22;1865;50.918;7.092;2022-11-11T10:02:53;15.30;52.40
3699;DHT22;1865;50.918;7.092;2022-11-11T10:05:21;15.50;52.50
3699;DHT22;1865;50.918;7.092;2022-11-11T10:07:56;15.50;51.70
3699;DHT22;1865;50.918;7.092;2022-11-11T10:13:26;15.40;51.00
3699;DHT22;1865;50.918;7.092;2022-11-11T10:21:44;15.60;51.00
3699;DHT22;1865;50.918;7.092;2022-11-11T10:24:15;15.70;51.20
3699;DHT22;1865;50.918;7.092;2022-11-11T10:26:43;15.80;50.30
3699;DHT22;1865;50.918;7.092;2022-11-11T10:29:15;15.90;50.10
3699;DHT22;1865;50.918;7.092;2022-11-11T10:31:42;15.70;50.20
3699;DHT22;1865;50.918;7.092;2022-11-11T10:34:12;15.70;50.90
3699;DHT22;1865;50.918;7.092;2022-11-11T10:36:52;15.80;50.50
3699;DHT22;1865;50.918;7.092;2022-11-11T10:41:58;15.90;49.50
3699;DHT22;1865;50.918;7.092;2022-11-11T10:44:28;16.00;49.60
3699;DHT22;1865;50.918;7.092;2022-11-11T10:47:04;16.00;49.50
3699;DHT22;1865;50.918;7.092;2022-11-11T10:49:37;16.00;50.00
3699;DHT22;1865;50.918;7.092;2022-11-11T10:52:12;16.30;49.70
3699;DHT22;1865;50.918;7.092;2022-11-11T10:54:45;16.50;48.30
3699;DHT22;1865;50.918;7.092;2022-11-11T10:57:21;16.70;48.30
3699;DHT22;1865;50.918;7.092;2022-11-11T10:59:56;16.80;48.00
3699;DHT22;1865;50.918;7.092;2022-11-11T11:02:36;17.10;47.40
3699;DHT22;1865;50.918;7.092;2022-11-11T11:07:37;17.20;46.00
3699;DHT22;1865;50.918;7.092;2022-11-11T11:10:17;17.70;46.30
3699;DHT22;1865;50.918;7.092;2022-11-11T11:15:30;18.00;43.50
3699;DHT22;1865;50.918;7.092;2022-11-11T11:18:11;18.20;43.90
3699;DHT22;1865;50.918;7.092;2022-11-11T11:20:38;18.70;42.20
3699;DHT22;1865;50.918;7.092;2022-11-11T11:23:03;18.90;42.40
3699;DHT22;1865;50.918;7.092;2022-11-11T11:25:31;19.30;41.80
3699;DHT22;1865;50.918;7.092;2022-11-11T11:28:11;19.30;41.30
3699;DHT22;1865;50.918;7.092;2022-11-11T11:30:37;19.00;41.40
3699;DHT22;1865;50.918;7.092;2022-11-11T11:33:07;18.90;41.80
3699;DHT22;1865;50.918;7.092;2022-11-11T11:37:58;18.70;42.60
3699;DHT22;1865;50.918;7.092;2022-11-11T11:40:24;18.60;43.30
3699;DHT22;1865;50.918;7.092;2022-11-11T11:42:50;18.60;42.70
3699;DHT22;1865;50.918;7.092;2022-11-11T11:45:26;18.50;42.60
3699;DHT22;1865;50.918;7.092;2022-11-11T11:50:52;18.40;42.70
3699;DHT22;1865;50.918;7.092;2022-11-11T11:53:54;18.30;42.90
3699;DHT22;1865;50.918;7.092;2022-11-11T11:56:35;18.40;42.80
3699;DHT22;1865;50.918;7.092;2022-11-11T12:02:03;18.60;42.80
3699;DHT22;1865;50.918;7.092;2022-11-11T12:07:35;18.50;42.20
3699;DHT22;1865;50.918;7.092;2022-11-11T12:15:42;18.30;42.60
3699;DHT22;1865;50.918;7.092;2022-11-11T12:18:17;18.50;42.60
3699;DHT22;1865;50.918;7.092;2022-11-11T12:20:54;18.70;42.30
3699;DHT22;1865;50.918;7.092;2022-11-11T12:26:34;18.90;42.10
3699;DHT22;1865;50.918;7.092;2022-11-11T12:29:22;19.30;41.00
3699;DHT22;1865;50.918;7.092;2022-11-11T12:32:24;19.30;39.90
3699;DHT22;1865;50.918;7.092;2022-11-11T12:37:46;19.40;40.30
3699;DHT22;1865;50.918;7.092;2022-11-11T12:45:44;20.00;39.70
3699;DHT22;1865;50.918;7.092;2022-11-11T12:48:37;20.00;38.40
3699;DHT22;1865;50.918;7.092;2022-11-11T12:59:49;20.20;38.50
3699;DHT22;1865;50.918;7.092;2022-11-11T13:08:20;20.60;38.00
3699;DHT22;1865;50.918;7.092;2022-11-11T13:11:31;21.10;36.60
3699;DHT22;1865;50.918;7.092;2022-11-11T13:16:35;21.50;35.80
3699;DHT22;1865;50.918;7.092;2022-11-11T13:19:23;21.80;34.60
3699;DHT22;1865;50.918;7.092;2022-11-11T13:21:56;21.60;34.30
3699;DHT22;1865;50.918;7.092;2022-11-11T13:24:23;21.40;34.70
3699;DHT22;1865;50.918;7.092;2022-11-11T13:26:53;21.40;34.60
3699;DHT22;1865;50.918;7.092;2022-11-11T13:29:33;21.60;34.80
3699;DHT22;1865;50.918;7.092;2022-11-11T13:32:01;22.00;33.90
3699;DHT22;1865;50.918;7.092;2022-11-11T13:34:31;22.50;34.00
3699;DHT22;1865;50.918;7.092;2022-11-11T13:37:02;22.80;32.60
3699;DHT22;1865;50.918;7.092;2022-11-11T13:39:30;23.30;32.00
3699;DHT22;1865;50.918;7.092;2022-11-11T13:41:57;23.80;30.70
3699;DHT22;1865;50.918;7.092;2022-11-11T13:44:29;24.00;30.30
3699;DHT22;1865;50.918;7.092;2022-11-11T13:47:04;24.00;30.30
3699;DHT22;1865;50.918;7.092;2022-11-11T13:49:37;24.50;29.90
3699;DHT22;1865;50.918;7.092;2022-11-11T13:52:42;24.50;29.50
3699;DHT22;1865;50.918;7.092;2022-11-11T13:55:24;23.70;28.80
3699;DHT22;1865;50.918;7.092;2022-11-11T13:57:52;22.60;31.00
3699;DHT22;1865;50.918;7.092;2022-11-11T14:02:45;21.80;32.90
3699;DHT22;1865;50.918;7.092;2022-11-11T14:12:51;20.90;35.40
3699;DHT22;1865;50.918;7.092;2022-11-11T14:15:42;20.60;35.30
3699;DHT22;1865;50.918;7.092;2022-11-11T14:20:44;20.40;35.60
3699;DHT22;1865;50.918;7.092;2022-11-11T14:23:15;20.50;35.80
3699;DHT22;1865;50.918;7.092;2022-11-11T14:25:47;20.40;35.60
3699;DHT22;1865;50.918;7.092;2022-11-11T14:36:26;20.20;35.10
3699;DHT22;1865;50.918;7.092;2022-11-11T14:39:16;20.10;35.60
3699;DHT22;1865;50.918;7.092;2022-11-11T14:41:51;20.00;36.00
3699;DHT22;1865;50.918;7.092;2022-11-11T14:49:48;19.80;37.10
3699;DHT22;1865;50.918;7.092;2022-11-11T14:57:41;19.50;38.20
3699;DHT22;1865;50.918;7.092;2022-11-11T15:00:16;19.30;38.30
3699;DHT22;1865;50.918;7.092;2022-11-11T15:15:02;18.60;41.30
3699;DHT22;1865;50.918;7.092;2022-11-11T15:18:13;18.60;40.90
3699;DHT22;1865;50.918;7.092;2022-11-11T15:20:40;18.50;41.30
3699;DHT22;1865;50.918;7.092;2022-11-11T15:23:32;18.40;41.80
3699;DHT22;1865;50.918;7.092;2022-11-11T15:26:36;18.30;42.10
3699;DHT22;1865;50.918;7.092;2022-11-11T15:37:19;18.20;42.60
3699;DHT22;1865;50.918;7.092;2022-11-11T15:39:54;18.10;42.80
3699;DHT22;1865;50.918;7.092;2022-11-11T15:42:39;18.00;43.20
3699;DHT22;1865;50.918;7.092;2022-11-11T15:45:20;17.90;43.50
3699;DHT22;1865;50.918;7.092;2022-11-11T15:47:47;17.80;43.80
3699;DHT22;1865;50.918;7.092;2022-11-11T15:50:17;17.70;44.00
3699;DHT22;1865;50.918;7.092;2022-11-11T15:52:43;17.60;44.30
3699;DHT22;1865;50.918;7.092;2022-11-11T15:55:24;17.60;44.30
3699;DHT22;1865;50.918;7.092;2022-11-11T15:57:50;17.60;44.40
3699;DHT22;1865;50.918;7.092;2022-11-11T16:00:27;17.50;45.30
3699;DHT22;1865;50.918;7.092;2022-11-11T16:02:55;17.50;45.40
3699;DHT22;1865;50.918;7.092;2022-11-11T16:05:26;17.30;45.50
3699;DHT22;1865;50.918;7.092;2022-11-11T16:07:56;17.30;45.50
3699;DHT22;1865;50.918;7.092;2022-11-11T16:10:31;17.20;46.10
3699;DHT22;1865;50.918;7.092;2022-11-11T16:13:02;17.00;46.10
3699;DHT22;1865;50.918;7.092;2022-11-11T16:18:32;16.90;47.20
3699;DHT22;1865;50.918;7.092;2022-11-11T16:21:18;16.80;47.50
3699;DHT22;1865;50.918;7.092;2022-11-11T16:23:46;16.70;47.60
3699;DHT22;1865;50.918;7.092;2022-11-11T16:26:12;16.60;47.90
3699;DHT22;1865;50.918;7.092;2022-11-11T16:28:47;16.60;48.00
3699;DHT22;1865;50.918;7.092;2022-11-11T16:31:20;16.50;47.90
3699;DHT22;1865;50.918;7.092;2022-11-11T16:33:47;16.30;48.10
3699;DHT22;1865;50.918;7.092;2022-11-11T16:36:12;16.20;48.00
3699;DHT22;1865;50.918;7.092;2022-11-11T16:38:38;16.20;48.20
3699;DHT22;1865;50.918;7.092;2022-11-11T16:41:26;16.10;48.10
3699;DHT22;1865;50.918;7.092;2022-11-11T16:43:56;15.90;48.40
3699;DHT22;1865;50.918;7.092;2022-11-11T16:46:38;15.90;48.70
3699;DHT22;1865;50.918;7.092;2022-11-11T16:49:44;15.80;48.40
3699;DHT22;1865;50.918;7.092;2022-11-11T16:52:15;15.70;48.80
3699;DHT22;1865;50.918;7.092;2022-11-11T16:54:50;15.70;49.30
3699;DHT22;1865;50.918;7.092;2022-11-11T16:57:22;15.70;49.20
3699;DHT22;1865;50.918;7.092;2022-11-11T16:59:52;15.60;49.00
3699;DHT22;1865;50.918;7.092;2022-11-11T17:02:21;15.70;48.70
3699;DHT22;1865;50.918;7.092;2022-11-11T17:04:53;15.60;48.80
3699;DHT22;1865;50.918;7.092;2022-11-11T17:07:31;15.50;48.60
3699;DHT22;1865;50.918;7.092;2022-11-11T17:12:32;15.40;48.70
3699;DHT22;1865;50.918;7.092;2022-11-11T17:14:57;15.40;48.80
3699;DHT22;1865;50.918;7.092;2022-11-11T17:17:23;15.40;48.80
3699;DHT22;1865;50.918;7.092;2022-11-11T17:19:49;15.30;48.70
3699;DHT22;1865;50.918;7.092;2022-11-11T17:22:14;15.30;49.20
3699;DHT22;1865;50.918;7.092;2022-11-11T17:24:41;15.20;49.20
3699;DHT22;1865;50.918;7.092;2022-11-11T17:27:07;15.20;49.60
3699;DHT22;1865;50.918;7.092;2022-11-11T17:29:33;15.20;49.40
3699;DHT22;1865;50.918;7.092;2022-11-11T17:31:58;15.20;49.30
3699;DHT22;1865;50.918;7.092;2022-11-11T17:34:24;15.10;49.30
3699;DHT22;1865;50.918;7.092;2022-11-11T17:36:50;15.10;49.40
3699;DHT22;1865;50.918;7.092;2022-11-11T17:39:15;15.00;49.30
3699;DHT22;1865;50.918;7.092;2022-11-11T17:41:41;15.00;49.40
3699;DHT22;1865;50.918;7.092;2022-11-11T17:44:06;14.90;49.70
3699;DHT22;1865;50.918;7.092;2022-11-11T17:46:32;14.80;50.10
3699;DHT22;1865;50.918;7.092;2022-11-11T17:48:58;14.70;50.00
3699;DHT22;1865;50.918;7.092;2022-11-11T17:51:24;14.70;50.10
3699;DHT22;1865;50.918;7.092;2022-11-11T17:53:51;14.60;49.70
3699;DHT22;1865;50.918;7.092;2022-11-11T17:56:17;14.60;50.20
3699;DHT22;1865;50.918;7.092;2022-11-11T17:58:43;14.70;50.00
3699;DHT22;1865;50.918;7.092;2022-11-11T18:01:11;14.70;49.30
3699;DHT22;1865;50.918;7.092;2022-11-11T18:03:42;14.70;49.80
3699;DHT22;1865;50.918;7.092;2022-11-11T18:06:08;14.70;49.70
3699;DHT22;1865;50.918;7.092;2022-11-11T18:08:34;14.50;50.00
3699;DHT22;1865;50.918;7.092;2022-11-11T18:11:04;14.50;50.10
3699;DHT22;1865;50.918;7.092;2022-11-11T18:13:30;14.50;50.00
3699;DHT22;1865;50.918;7.092;2022-11-11T18:15:56;14.50;50.10
3699;DHT22;1865;50.918;7.092;2022-11-11T18:18:25;14.50;50.00
3699;DHT22;1865;50.918;7.092;2022-11-11T18:20:51;14.40;49.90
3699;DHT22;1865;50.918;7.092;2022-11-11T18:23:16;14.40;50.20
3699;DHT22;1865;50.918;7.092;2022-11-11T18:25:42;14.40;50.20
3699;DHT22;1865;50.918;7.092;2022-11-11T18:28:08;14.40;50.00
3699;DHT22;1865;50.918;7.092;2022-11-11T18:30:34;14.40;50.50
3699;DHT22;1865;50.918;7.092;2022-11-11T18:32:59;14.50;50.10